createdAt,value
2022-11-28T00:02:51.363Z,34.10
2022-11-28T00:07:54.058Z,34.40
2022-11-28T00:12:56.575Z,31.77
2022-11-28T00:17:59.203Z,32.50
2022-11-28T00:23:01.778Z,32.03
2022-11-28T00:28:04.290Z,29.47
2022-11-28T00:33:06.866Z,25.45
2022-11-28T00:38:09.401Z,28.27
2022-11-28T00:43:12.987Z,23.40
2022-11-28T00:48:15.527Z,20.30
2022-11-28T00:53:18.450Z,16.17
2022-11-28T00:58:21.008Z,15.23
2022-11-28T01:03:23.615Z,15.38
2022-11-28T01:08:27.105Z,12.77
2022-11-28T01:13:29.834Z,15.27
2022-11-28T01:18:32.358Z,15.87
2022-11-28T01:23:35.071Z,17.00
2022-11-28T01:28:37.622Z,17.50
2022-11-28T01:33:40.215Z,18.43
2022-11-28T01:38:43.491Z,16.30
2022-11-28T01:44:07.374Z,16.00
2022-11-28T01:49:09.919Z,19.73
2022-11-28T01:54:14.807Z,15.07
2022-11-28T01:59:19.248Z,14.00
2022-11-28T02:04:23.161Z,17.70
2022-11-28T02:09:25.739Z,20.10
2022-11-28T02:14:28.186Z,17.73
2022-11-28T02:20:02.159Z,22.10
2022-11-28T02:25:36.382Z,21.50
2022-11-28T02:31:09.596Z,22.00
2022-11-28T02:36:24.521Z,24.33
2022-11-28T02:41:53.955Z,24.93
2022-11-28T02:46:59.914Z,26.17
2022-11-28T02:52:17.963Z,19.13
2022-11-28T02:57:20.433Z,15.00
2022-11-28T03:02:29.240Z,15.67
2022-11-28T03:08:00.987Z,15.57
2022-11-28T03:13:21.609Z,12.98
2022-11-28T03:18:30.659Z,16.63
2022-11-28T03:23:42.932Z,19.70
2022-11-28T03:28:53.245Z,18.03
2022-11-28T03:33:59.489Z,17.50
2022-11-28T03:39:09.043Z,21.27
2022-11-28T03:44:18.221Z,20.87
2022-11-28T03:49:30.656Z,19.70
2022-11-28T03:54:59.850Z,19.20
2022-11-28T04:00:09.471Z,20.57
2022-11-28T04:05:37.400Z,24.30
2022-11-28T04:11:06.165Z,23.30
2022-11-28T04:16:25.426Z,25.20
2022-11-28T04:21:35.184Z,29.27
2022-11-28T04:26:45.326Z,31.87
2022-11-28T04:31:51.556Z,30.83
2022-11-28T04:36:57.774Z,29.50
2022-11-28T04:42:08.874Z,27.43
2022-11-28T04:47:11.926Z,27.45
2022-11-28T04:52:38.364Z,30.17
2022-11-28T04:57:45.350Z,35.70
2022-11-28T05:02:51.699Z,27.47
2022-11-28T05:07:54.456Z,30.98
2022-11-28T05:12:57.033Z,28.70
2022-11-28T05:17:59.803Z,21.30
2022-11-28T05:23:02.818Z,20.97
2022-11-28T05:28:09.114Z,24.87
2022-11-28T05:33:11.621Z,29.10
2022-11-28T05:38:14.169Z,25.93
2022-11-28T05:43:16.687Z,26.77
2022-11-28T05:48:19.624Z,25.07
2022-11-28T05:53:22.610Z,27.47
2022-11-28T05:58:25.110Z,26.53
2022-11-28T06:03:27.681Z,27.20
2022-11-28T06:08:30.510Z,23.80
2022-11-28T06:13:33.067Z,21.33
2022-11-28T06:18:35.615Z,21.00
2022-11-28T06:23:39.276Z,16.83
2022-11-28T06:28:43.283Z,16.17
2022-11-28T06:33:46.409Z,18.17
2022-11-28T06:38:49.308Z,17.47
2022-11-28T06:43:51.803Z,14.53
2022-11-28T06:48:55.127Z,16.10
2022-11-28T06:53:57.913Z,16.33
2022-11-28T06:59:01.075Z,19.37
2022-11-28T07:04:03.775Z,13.30
2022-11-28T07:09:06.301Z,12.27
2022-11-28T07:14:10.480Z,12.17
2022-11-28T07:19:13.806Z,11.17
2022-11-28T07:24:19.720Z,11.25
2022-11-28T07:29:24.619Z,10.20
2022-11-28T07:34:27.228Z,13.47
2022-11-28T07:39:29.871Z,11.90
2022-11-28T07:44:32.422Z,18.00
2022-11-28T07:49:35.659Z,15.85
2022-11-28T07:54:38.212Z,15.95
2022-11-28T07:59:40.952Z,13.97
2022-11-28T08:04:49.358Z,17.30
2022-11-28T08:09:54.252Z,20.05
2022-11-28T08:14:56.950Z,16.70
2022-11-28T08:19:59.566Z,15.10
2022-11-28T08:25:02.162Z,18.02
2022-11-28T08:30:08.589Z,19.83
2022-11-28T08:35:11.258Z,19.60
2022-11-28T08:40:15.239Z,17.37
2022-11-28T08:45:17.790Z,19.73
2022-11-28T08:50:20.360Z,17.73
2022-11-28T08:55:31.688Z,20.50
2022-11-28T09:00:35.059Z,18.10
2022-11-28T09:05:37.687Z,19.27
2022-11-28T09:10:42.672Z,19.50
2022-11-28T09:15:50.073Z,17.20
2022-11-28T09:21:05.743Z,20.37
2022-11-28T09:26:15.564Z,23.13
2022-11-28T09:31:19.769Z,19.97
2022-11-28T09:36:24.060Z,19.37
2022-11-28T09:41:32.763Z,29.07
2022-11-28T09:46:38.300Z,26.97
2022-11-28T09:51:58.741Z,20.63
2022-11-28T09:57:03.890Z,23.20
2022-11-28T10:02:13.157Z,21.53
2022-11-28T10:07:24.470Z,21.23
2022-11-28T10:12:54.735Z,17.58
2022-11-28T10:18:21.225Z,22.27
2022-11-28T10:23:41.964Z,20.17
2022-11-28T10:28:50.278Z,21.63
2022-11-28T10:33:57.615Z,19.83
2022-11-28T10:39:12.208Z,16.00
2022-11-28T10:44:29.091Z,17.73
2022-11-28T10:49:40.915Z,14.37
2022-11-28T10:55:03.735Z,11.50
2022-11-28T11:00:14.117Z,14.37
2022-11-28T11:05:24.418Z,10.97
2022-11-28T11:10:39.270Z,11.13
2022-11-28T11:15:42.289Z,13.47
2022-11-28T11:20:45.084Z,12.65
2022-11-28T11:25:55.564Z,8.40
2022-11-28T11:31:19.808Z,9.50
2022-11-28T11:36:31.349Z,8.67
2022-11-28T11:41:34.274Z,13.30
2022-11-28T11:46:57.761Z,11.40
2022-11-28T11:52:06.981Z,11.27
2022-11-28T11:57:31.902Z,14.37
2022-11-28T12:02:44.034Z,12.30
2022-11-28T12:08:11.608Z,11.18
2022-11-28T12:13:21.216Z,9.50
2022-11-28T12:18:42.186Z,10.83
2022-11-28T12:24:03.736Z,12.43
2022-11-28T12:29:34.083Z,10.77
2022-11-28T12:34:39.599Z,10.50
2022-11-28T12:40:04.111Z,7.03
2022-11-28T12:45:15.536Z,10.97
2022-11-28T12:50:30.028Z,13.73
2022-11-28T12:55:43.548Z,9.20
2022-11-28T13:01:13.813Z,13.40
2022-11-28T13:06:42.129Z,12.63
2022-11-28T13:12:26.560Z,10.67
2022-11-28T13:17:47.128Z,12.40
2022-11-28T13:22:58.420Z,13.80
2022-11-28T13:28:17.859Z,15.48
2022-11-28T13:33:29.393Z,15.80
2022-11-28T13:39:08.137Z,12.70
2022-11-28T13:44:18.999Z,15.13
2022-11-28T13:49:26.662Z,16.40
2022-11-28T13:54:32.065Z,19.33
2022-11-28T13:59:35.670Z,13.47
2022-11-28T14:04:44.505Z,12.90
2022-11-28T14:10:01.266Z,14.87
2022-11-28T14:15:31.174Z,18.03
2022-11-28T14:20:50.871Z,19.55
2022-11-28T14:25:54.788Z,18.17
2022-11-28T14:31:05.484Z,15.87
2022-11-28T14:36:24.984Z,14.10
2022-11-28T14:41:29.090Z,13.53
2022-11-28T14:46:32.671Z,15.43
2022-11-28T14:51:47.832Z,20.77
2022-11-28T14:56:56.746Z,22.03
2022-11-28T15:02:11.679Z,22.90
2022-11-28T15:12:35.248Z,19.33
2022-11-28T15:17:37.914Z,21.23
2022-11-28T15:22:42.762Z,19.90
2022-11-28T15:27:45.735Z,15.23
2022-11-28T15:32:48.861Z,24.13
2022-11-28T15:37:55.224Z,16.43
2022-11-28T15:43:09.573Z,16.10
2022-11-28T15:48:38.999Z,10.00
2022-11-28T15:53:43.538Z,13.40
2022-11-28T15:58:47.991Z,15.03
2022-11-28T16:04:13.529Z,14.70
2022-11-28T16:09:19.004Z,16.90
2022-11-28T16:14:24.274Z,15.30
2022-11-28T16:19:32.863Z,17.67
2022-11-28T16:24:47.461Z,17.50
2022-11-28T16:29:51.003Z,12.77
2022-11-28T16:34:55.534Z,12.50
2022-11-28T16:40:22.100Z,10.87
2022-11-28T16:45:28.045Z,14.47
2022-11-28T16:50:30.665Z,10.77
2022-11-28T16:55:37.507Z,13.50
2022-11-28T17:00:44.524Z,14.37
2022-11-28T17:05:47.097Z,11.30
2022-11-28T17:10:49.998Z,13.87
2022-11-28T17:15:52.886Z,16.13
2022-11-28T17:20:55.602Z,11.07
2022-11-28T17:25:58.123Z,14.17
2022-11-28T17:31:00.712Z,13.80
2022-11-28T17:36:03.908Z,11.77
2022-11-28T17:41:09.971Z,14.13
2022-11-28T17:46:13.145Z,16.57
2022-11-28T17:51:16.966Z,17.90
2022-11-28T17:56:19.466Z,17.13
2022-11-28T18:01:26.847Z,22.90
2022-11-28T18:06:34.375Z,20.20
2022-11-28T18:11:37.235Z,21.83
2022-11-28T18:16:41.124Z,18.93
2022-11-28T18:21:44.247Z,24.40
2022-11-28T18:26:47.230Z,20.13
2022-11-28T18:31:50.385Z,18.60
2022-11-28T18:37:00.223Z,15.77
2022-11-28T18:42:06.612Z,16.87
2022-11-28T18:47:09.478Z,17.80
2022-11-28T18:52:13.047Z,16.77
2022-11-28T18:57:15.978Z,12.37
2022-11-28T19:02:18.771Z,14.80
2022-11-28T19:07:23.780Z,13.77
2022-11-28T19:12:26.443Z,13.73
2022-11-28T19:17:29.209Z,17.60
2022-11-28T19:22:34.937Z,13.70
2022-11-28T19:27:38.045Z,13.27
2022-11-28T19:32:40.610Z,11.87
2022-11-28T19:37:43.906Z,12.40
2022-11-28T19:42:46.615Z,13.20
2022-11-28T19:47:49.453Z,12.07
2022-11-28T19:52:53.220Z,10.47
2022-11-28T19:57:55.824Z,10.20
2022-11-28T20:03:10.090Z,10.07
2022-11-28T20:08:14.309Z,9.63
2022-11-28T20:13:16.990Z,9.30
2022-11-28T20:18:19.713Z,9.30
2022-11-28T20:23:22.751Z,9.37
2022-11-28T20:28:25.335Z,9.13
2022-11-28T20:33:28.395Z,10.97
2022-11-28T20:38:31.296Z,10.20
2022-11-28T20:43:36.203Z,23.70
2022-11-28T20:48:39.417Z,12.57
2022-11-28T20:53:42.125Z,13.40
2022-11-28T20:58:45.181Z,11.37
2022-11-28T21:03:48.270Z,13.30
2022-11-28T21:08:51.626Z,13.07
2022-11-28T21:13:56.654Z,13.27
2022-11-28T21:19:07.746Z,14.00
2022-11-28T21:24:13.435Z,12.87
2022-11-28T21:29:18.541Z,10.77
2022-11-28T21:34:22.481Z,11.87
2022-11-28T21:39:25.181Z,16.17
2022-11-28T21:44:28.390Z,11.00
2022-11-28T21:49:31.875Z,11.77
2022-11-28T21:54:34.745Z,11.37
2022-11-28T21:59:37.228Z,12.07
2022-11-28T22:04:39.819Z,12.53
2022-11-28T22:09:42.561Z,12.03
2022-11-28T22:14:46.215Z,9.83
2022-11-28T22:19:48.906Z,12.43
2022-11-28T22:24:51.421Z,11.05
2022-11-28T22:29:53.894Z,18.00
2022-11-28T22:34:56.421Z,12.40
2022-11-28T22:39:58.942Z,11.50
2022-11-28T22:45:02.002Z,10.97
2022-11-28T22:50:06.306Z,12.57
2022-11-28T22:55:10.112Z,10.50
2022-11-28T23:00:13.355Z,13.50
2022-11-28T23:05:16.028Z,10.70
2022-11-28T23:10:18.644Z,10.37
2022-11-28T23:15:21.435Z,10.40
2022-11-28T23:20:24.736Z,11.43
2022-11-28T23:25:27.223Z,10.97
2022-11-28T23:30:29.892Z,12.63
2022-11-28T23:35:32.727Z,10.20
2022-11-28T23:40:35.298Z,9.45
2022-11-28T23:45:37.864Z,10.47
2022-11-28T23:50:40.486Z,10.97
2022-11-28T23:55:43.610Z,13.27
